Time;durP1;ratioP1;P1;durP2;ratioP2;P2;SDS_P1;SDS_P2;PMS_P1;PMS_P2;Temp;Humidity;BMP_temperature;BMP_pressure;BME280_temperature;BME280_humidity;BME280_pressure;Samples;Min_cycle;Max_cycle;Signal;HPM_P1;HPM_P2
2022/10/08 00:01:03;;;;;;;11.07;5.13;;;12.60;1.00;;;;;;5082162;28;20381;-81
2022/10/08 00:07:24;;;;;;;16.00;5.47;;;12.70;1.00;;;;;;5077704;28;20408;-81
2022/10/08 00:16:37;;;;;;;17.77;5.63;;;12.90;1.00;;;;;;5078395;28;20435;-90
2022/10/08 00:23:00;;;;;;;9.27;5.37;;;12.90;1.00;;;;;;5076307;28;20407;-90
2022/10/08 00:35:39;;;;;;;18.70;6.00;;;12.90;1.00;;;;;;5073782;28;20563;-90
2022/10/08 00:38:42;;;;;;;16.97;5.40;;;12.90;1.00;;;;;;5075798;28;20431;-90
2022/10/08 00:44:56;;;;;;;18.53;6.27;;;12.90;1.00;;;;;;5083869;28;20477;-81
2022/10/08 00:51:06;;;;;;;13.63;6.13;;;12.90;1.00;;;;;;5092790;28;20390;-81
2022/10/08 00:56:54;;;;;;;18.13;6.13;;;13.00;1.00;;;;;;5091766;28;20462;-90
2022/10/08 01:06:26;;;;;;;18.33;7.03;;;13.10;1.00;;;;;;5077313;28;20371;-90
2022/10/08 01:09:42;;;;;;;14.13;5.10;;;13.10;1.00;;;;;;5076177;28;20425;-90
2022/10/08 01:12:32;;;;;;;12.33;5.00;;;13.20;1.00;;;;;;5084758;28;20398;-81
2022/10/08 01:18:25;;;;;;;17.60;5.67;;;13.20;1.00;;;;;;5082833;28;20910;-81
2022/10/08 01:28:15;;;;;;;18.03;5.63;;;13.30;1.00;;;;;;5013891;28;20415;-81
2022/10/08 01:44:42;;;;;;;16.43;6.23;;;13.50;1.00;;;;;;5003536;28;20418;-90
2022/10/08 01:50:56;;;;;;;11.50;5.10;;;13.50;1.00;;;;;;5004041;28;20592;-90
2022/10/08 01:53:26;;;;;;;12.23;5.20;;;13.50;1.00;;;;;;4993708;28;20472;-90
2022/10/08 01:55:54;;;;;;;12.87;5.03;;;13.50;1.00;;;;;;4992242;28;20472;-88
2022/10/08 02:02:02;;;;;;;14.07;5.40;;;13.50;1.00;;;;;;4994996;28;20423;-90
2022/10/08 02:08:42;;;;;;;9.70;5.00;;;13.40;1.00;;;;;;5081641;28;20900;-90
2022/10/08 02:11:09;;;;;;;23.53;5.37;;;13.40;1.00;;;;;;5078545;28;20459;-81
2022/10/08 02:17:12;;;;;;;11.63;5.20;;;13.30;1.00;;;;;;5087166;28;20181;-80
2022/10/08 02:20:24;;;;;;;8.53;4.50;;;13.20;1.00;;;;;;5084154;28;20510;-81
2022/10/08 02:23:42;;;;;;;17.10;4.57;;;13.10;1.00;;;;;;5075330;28;20428;-81
2022/10/08 02:29:36;;;;;;;13.33;4.30;;;12.70;1.00;;;;;;5079206;28;20399;-89
2022/10/08 02:32:31;;;;;;;18.13;5.30;;;12.60;1.00;;;;;;5090834;28;20509;-90
2022/10/08 02:41:45;;;;;;;34.67;4.83;;;12.30;1.00;;;;;;5084752;28;20407;-82
2022/10/08 02:47:36;;;;;;;18.57;5.40;;;12.10;1.00;;;;;;5085459;28;20947;-81
2022/10/08 02:53:24;;;;;;;8.10;4.63;;;11.90;1.00;;;;;;5086244;28;20432;-81
2022/10/08 02:59:13;;;;;;;13.90;4.97;;;11.70;1.00;;;;;;5082394;28;20425;-80
2022/10/08 03:12:00;;;;;;;10.40;5.30;;;11.30;1.00;;;;;;5078134;28;20451;-90
2022/10/08 03:21:43;;;;;;;16.83;5.70;;;11.00;1.00;;;;;;5080697;28;20423;-89
2022/10/08 03:24:53;;;;;;;11.77;6.03;;;11.00;1.00;;;;;;5077365;28;20509;-90
2022/10/08 03:30:41;;;;;;;16.53;5.80;;;10.80;1.00;;;;;;5082109;28;20454;-81
2022/10/08 03:36:36;;;;;;;14.20;5.70;;;10.80;1.00;;;;;;5075207;28;20259;-81
2022/10/08 03:42:23;;;;;;;14.43;5.83;;;10.60;1.00;;;;;;5081683;28;20450;-81
2022/10/08 03:48:11;;;;;;;23.73;6.53;;;10.50;1.00;;;;;;5073331;28;20228;-81
2022/10/08 03:50:57;;;;;;;19.57;6.73;;;10.50;1.00;;;;;;5084012;28;20817;-81
2022/10/08 03:53:54;;;;;;;21.57;6.10;;;10.40;1.00;;;;;;5087981;28;20202;-81
2022/10/08 03:56:54;;;;;;;13.90;5.63;;;10.40;1.00;;;;;;5072315;28;20441;-80
2022/10/08 03:59:36;;;;;;;40.93;7.50;;;10.30;1.00;;;;;;5073998;28;20465;-81
2022/10/08 04:02:02;;;;;;;21.87;7.90;;;10.30;1.00;;;;;;5082132;28;20811;-81
2022/10/08 04:05:06;;;;;;;17.70;6.60;;;10.30;1.00;;;;;;5075413;28;20430;-81
2022/10/08 04:18:12;;;;;;;13.47;6.40;;;10.00;1.00;;;;;;5095222;28;20485;-81
2022/10/08 04:20:58;;;;;;;15.73;6.73;;;9.90;1.00;;;;;;5093399;28;20444;-81
2022/10/08 04:24:00;;;;;;;15.70;6.20;;;9.80;1.00;;;;;;5088604;28;20427;-81
2022/10/08 04:27:18;;;;;;;19.30;6.80;;;9.80;1.00;;;;;;5086299;28;20456;-81
2022/10/08 04:33:05;;;;;;;14.77;6.47;;;9.70;1.00;;;;;;5080753;28;20778;-89
2022/10/08 04:42:15;;;;;;;12.87;6.40;;;9.50;1.00;;;;;;5083445;28;20395;-89
2022/10/08 04:45:06;;;;;;;16.57;7.00;;;9.60;1.00;;;;;;5096231;28;20436;-81
2022/10/08 04:51:06;;;;;;;23.77;7.03;;;9.40;1.00;;;;;;5086663;28;20455;-81
2022/10/08 05:00:16;;;;;;;21.80;7.23;;;9.20;1.00;;;;;;5081206;28;20870;-89
2022/10/08 05:06:07;;;;;;;13.23;6.13;;;9.20;1.10;;;;;;5083074;28;20194;-89
2022/10/08 05:08:33;;;;;;;19.33;7.33;;;9.10;1.00;;;;;;5083242;28;20459;-89
2022/10/08 05:11:06;;;;;;;14.13;6.53;;;9.00;1.00;;;;;;5081064;28;20385;-90
2022/10/08 05:20:30;;;;;;;20.43;6.57;;;8.90;2.40;;;;;;5079624;28;20426;-81
2022/10/08 05:23:35;;;;;;;16.50;6.83;;;8.80;2.50;;;;;;5086350;28;20817;-81
2022/10/08 05:26:20;;;;;;;14.33;6.33;;;8.90;1.40;;;;;;5081607;28;20462;-81
2022/10/08 05:32:12;;;;;;;11.73;6.30;;;8.80;1.00;;;;;;5086199;28;20412;-73
2022/10/08 05:34:42;;;;;;;14.83;7.30;;;8.70;1.00;;;;;;5084802;28;20969;-73
2022/10/08 05:37:12;;;;;;;16.63;6.50;;;8.70;1.00;;;;;;5075928;28;20943;-73
2022/10/08 05:39:42;;;;;;;19.03;7.77;;;8.60;1.00;;;;;;5082219;28;21003;-73
2022/10/08 05:42:08;;;;;;;14.70;6.70;;;8.60;1.00;;;;;;5077029;28;20867;-73
2022/10/08 05:44:48;;;;;;;11.43;5.57;;;8.70;1.00;;;;;;5081825;28;20479;-74
2022/10/08 05:47:18;;;;;;;16.57;6.67;;;8.60;1.00;;;;;;5081277;28;20182;-73
2022/10/08 05:49:44;;;;;;;20.30;6.57;;;8.50;1.00;;;;;;5076853;28;20420;-73
2022/10/08 05:52:18;;;;;;;21.40;6.97;;;8.50;1.00;;;;;;5081844;28;20792;-74
2022/10/08 05:54:48;;;;;;;17.43;7.10;;;8.50;1.10;;;;;;5087173;28;20201;-74
2022/10/08 05:57:30;;;;;;;17.23;6.23;;;8.50;1.10;;;;;;5078908;28;20755;-73
2022/10/08 06:00:13;;;;;;;12.33;6.53;;;8.50;1.00;;;;;;5075658;28;20943;-73
2022/10/08 06:02:38;;;;;;;11.20;6.60;;;8.50;1.00;;;;;;5083001;28;20445;-74
2022/10/08 06:05:05;;;;;;;15.07;6.90;;;8.50;1.00;;;;;;5083396;28;20951;-74
2022/10/08 06:07:30;;;;;;;13.50;6.90;;;8.50;1.20;;;;;;5087610;28;20265;-74
2022/10/08 06:09:56;;;;;;;16.33;6.80;;;8.50;1.00;;;;;;5076880;28;20460;-74
2022/10/08 06:12:21;;;;;;;16.27;6.70;;;8.50;1.00;;;;;;5077606;28;20175;-73
2022/10/08 06:14:48;;;;;;;14.33;6.77;;;8.50;1.00;;;;;;5075907;28;20312;-72
2022/10/08 06:17:18;;;;;;;17.67;6.90;;;8.50;1.00;;;;;;5075237;28;20178;-72
2022/10/08 06:19:44;;;;;;;14.30;6.90;;;8.50;2.30;;;;;;5078432;28;20428;-72
2022/10/08 06:22:09;;;;;;;12.27;6.70;;;8.50;1.30;;;;;;5085242;28;20401;-72
2022/10/08 06:24:35;;;;;;;25.73;6.80;;;8.50;2.70;;;;;;5076595;28;20297;-72
2022/10/08 06:27:01;;;;;;;16.50;6.40;;;8.50;3.40;;;;;;5081070;28;20231;-72
2022/10/08 06:29:26;;;;;;;22.03;6.50;;;8.50;4.10;;;;;;5083142;28;20183;-74
2022/10/08 06:31:52;;;;;;;11.30;5.60;;;8.60;3.90;;;;;;5075050;28;20171;-73
2022/10/08 06:34:19;;;;;;;22.70;6.83;;;8.50;5.40;;;;;;5079164;28;20207;-73
2022/10/08 06:36:44;;;;;;;9.83;5.67;;;8.60;5.70;;;;;;5077891;28;20437;-73
2022/10/08 06:39:13;;;;;;;22.87;5.70;;;8.60;4.80;;;;;;5076002;28;20448;-73
2022/10/08 06:41:39;;;;;;;9.00;5.63;;;8.70;3.20;;;;;;5081214;28;20178;-73
2022/10/08 06:44:13;;;;;;;20.47;5.50;;;8.80;2.50;;;;;;5086923;28;20484;-73
2022/10/08 06:46:42;;;;;;;6.50;5.13;;;8.80;5.00;;;;;;5090974;28;20177;-73
2022/10/08 06:49:12;;;;;;;7.63;4.60;;;8.80;6.60;;;;;;5094233;28;20404;-74
2022/10/08 06:51:38;;;;;;;20.37;5.17;;;8.90;6.30;;;;;;5092611;28;21020;-73
2022/10/08 06:54:04;;;;;;;17.47;4.57;;;8.80;6.10;;;;;;5077761;28;20465;-73
2022/10/08 06:56:30;;;;;;;12.93;5.27;;;8.90;7.70;;;;;;5077582;28;20766;-74
2022/10/08 06:58:56;;;;;;;10.00;5.17;;;8.90;8.00;;;;;;5084272;28;20179;-72
2022/10/08 07:01:25;;;;;;;10.60;6.07;;;9.00;9.40;;;;;;5074323;28;20502;-73
2022/10/08 07:03:56;;;;;;;8.30;5.23;;;9.00;13.50;;;;;;5080732;28;20447;-72
2022/10/08 07:06:24;;;;;;;10.10;5.43;;;9.20;12.20;;;;;;5074019;28;20437;-72
2022/10/08 07:08:54;;;;;;;14.43;5.30;;;9.30;12.90;;;;;;5075251;28;20436;-72
2022/10/08 07:11:20;;;;;;;22.03;5.10;;;9.30;14.40;;;;;;5080494;28;20764;-71
2022/10/08 07:13:46;;;;;;;11.33;6.20;;;9.40;15.20;;;;;;5077389;28;20428;-72
2022/10/08 07:16:20;;;;;;;10.60;5.20;;;9.50;16.00;;;;;;5076104;28;20437;-72
2022/10/08 07:18:47;;;;;;;18.93;6.00;;;9.50;18.70;;;;;;5079123;28;20181;-72
2022/10/08 07:21:15;;;;;;;22.20;6.87;;;9.70;20.80;;;;;;5080411;28;20938;-72
2022/10/08 07:23:41;;;;;;;11.87;5.33;;;9.80;25.20;;;;;;5083832;28;20417;-72
2022/10/08 07:26:15;;;;;;;17.97;5.67;;;9.90;29.00;;;;;;5080411;28;20524;-72
2022/10/08 07:28:46;;;;;;;11.90;5.97;;;10.00;31.00;;;;;;5087081;28;20800;-72
2022/10/08 07:31:15;;;;;;;16.43;5.40;;;10.10;38.50;;;;;;5085378;28;21012;-73
2022/10/08 07:33:42;;;;;;;18.70;4.60;;;10.20;31.60;;;;;;5086516;28;20429;-73
2022/10/08 07:36:10;;;;;;;7.30;4.20;;;10.30;25.30;;;;;;5074227;28;20506;-74
2022/10/08 07:38:37;;;;;;;10.30;4.73;;;10.40;21.10;;;;;;5084407;28;20425;-73
2022/10/08 07:41:18;;;;;;;12.40;5.63;;;10.50;20.70;;;;;;5076875;28;20432;-74
2022/10/08 07:43:44;;;;;;;7.80;5.17;;;10.60;19.50;;;;;;5073998;28;20436;-73
2022/10/08 07:46:13;;;;;;;12.30;5.63;;;10.60;19.70;;;;;;5076543;28;21091;-73
2022/10/08 07:48:38;;;;;;;9.63;5.20;;;10.70;24.30;;;;;;5088299;28;20170;-73
2022/10/08 07:51:19;;;;;;;13.00;5.40;;;10.90;25.60;;;;;;5094454;28;20400;-79
2022/10/08 08:00:44;;;;;;;13.00;4.50;;;11.10;18.60;;;;;;5076030;28;20408;-82
2022/10/08 08:03:30;;;;;;;9.63;4.10;;;11.30;9.00;;;;;;5081855;28;20477;-78
2022/10/08 08:12:40;;;;;;;38.10;4.87;;;12.30;1.00;;;;;;5073793;28;20489;-81
2022/10/08 08:15:30;;;;;;;26.83;4.20;;;12.70;1.00;;;;;;5093599;28;21045;-80
2022/10/08 08:18:36;;;;;;;11.63;4.20;;;13.20;1.00;;;;;;5084528;28;20261;-81
2022/10/08 08:24:54;;;;;;;11.33;3.97;;;13.70;1.00;;;;;;5086300;28;20448;-80
2022/10/08 08:27:30;;;;;;;11.15;3.50;;;13.90;1.00;;;;;;5072314;28;20431;-80
2022/10/08 08:30:18;;;;;;;16.97;3.73;;;14.10;1.00;;;;;;5089254;28;20182;-80
2022/10/08 08:36:06;;;;;;;11.83;3.87;;;14.50;1.00;;;;;;5073912;28;20505;-79
2022/10/08 08:38:36;;;;;;;10.57;3.77;;;14.80;1.00;;;;;;5082044;28;20894;-79
2022/10/08 08:44:36;;;;;;;11.97;3.67;;;15.30;1.00;;;;;;5073247;28;20405;-79
2022/10/08 09:00:38;;;;;;;8.73;2.60;;;15.80;1.00;;;;;;5074698;28;20375;-80
2022/10/08 09:10:32;;;;;;;20.33;2.53;;;15.90;1.00;;;;;;5084504;28;20901;-80
2022/10/08 09:16:33;;;;;;;7.30;2.57;;;16.10;1.00;;;;;;5088803;28;21151;-79
2022/10/08 09:22:22;;;;;;;9.47;2.30;;;16.20;1.00;;;;;;5084830;28;20381;-78
2022/10/08 09:25:15;;;;;;;5.23;2.10;;;16.40;1.00;;;;;;5076026;28;20768;-78
2022/10/08 09:27:55;;;;;;;10.13;2.10;;;16.60;1.00;;;;;;5085889;28;20482;-78
2022/10/08 09:37:44;;;;;;;5.23;2.37;;;16.60;1.00;;;;;;5090176;28;20936;-78
2022/10/08 09:41:00;;;;;;;10.93;2.30;;;16.80;1.00;;;;;;5083757;28;20433;-78
2022/10/08 09:47:02;;;;;;;14.70;2.87;;;17.00;1.00;;;;;;5080378;28;20437;-78
2022/10/08 09:50:18;;;;;;;5.40;2.20;;;16.90;1.00;;;;;;5089469;28;20400;-78
2022/10/08 09:52:55;;;;;;;6.53;1.67;;;17.20;1.00;;;;;;5082183;28;20416;-78
2022/10/08 09:58:57;;;;;;;6.57;1.97;;;17.50;1.00;;;;;;5085484;28;20387;-78
2022/10/08 10:04:45;;;;;;;6.47;2.20;;;17.50;1.00;;;;;;5075656;28;20442;-80
2022/10/08 10:07:12;;;;;;;11.13;3.07;;;17.70;1.00;;;;;;5080638;28;20880;-80
2022/10/08 10:09:48;;;;;;;4.33;1.93;;;17.80;1.00;;;;;;5084987;28;20180;-80
2022/10/08 10:13:06;;;;;;;4.43;1.77;;;17.80;1.00;;;;;;5081544;28;20878;-80
2022/10/08 10:15:38;;;;;;;3.27;1.97;;;18.00;1.00;;;;;;5088583;28;20552;-81
2022/10/08 10:21:55;;;;;;;9.13;2.10;;;18.30;1.00;;;;;;5079655;28;20410;-80
2022/10/08 10:24:24;;;;;;;8.03;1.87;;;18.10;1.00;;;;;;5092741;28;20438;-78
2022/10/08 10:27:15;;;;;;;5.37;1.67;;;18.30;1.00;;;;;;5085574;28;20403;-78
2022/10/08 10:30:08;;;;;;;4.73;1.33;;;18.50;1.00;;;;;;5088792;28;20514;-75
2022/10/08 10:32:43;;;;;;;4.17;1.57;;;18.50;1.00;;;;;;5053219;28;20883;-76
2022/10/08 10:35:25;;;;;;;7.27;2.67;;;18.70;1.00;;;;;;5039926;28;21049;-75
2022/10/08 10:38:21;;;;;;;4.07;1.80;;;18.60;1.00;;;;;;5053102;28;20437;-76
2022/10/08 10:41:16;;;;;;;5.43;1.70;;;18.70;1.00;;;;;;5053000;28;20428;-77
2022/10/08 10:43:59;;;;;;;12.37;1.63;;;18.50;1.00;;;;;;5047302;28;20842;-76
2022/10/08 10:50:36;;;;;;;7.97;2.00;;;18.80;1.00;;;;;;5052668;28;20435;-78
2022/10/08 10:56:56;;;;;;;3.00;1.30;;;18.80;1.00;;;;;;5039856;28;20399;-77
2022/10/08 10:59:53;;;;;;;4.63;1.93;;;18.80;1.00;;;;;;5025264;28;20983;-79
2022/10/08 11:05:42;;;;;;;3.97;1.73;;;18.20;1.00;;;;;;5050706;28;20435;-77
2022/10/08 11:08:54;;;;;;;3.70;1.80;;;18.40;1.00;;;;;;5043487;28;20455;-77
2022/10/08 11:15:06;;;;;;;6.03;1.97;;;18.80;1.00;;;;;;5038109;28;20899;-78
2022/10/08 11:18:00;;;;;;;6.00;2.37;;;18.90;1.00;;;;;;5041733;28;20458;-78
2022/10/08 11:20:38;;;;;;;5.23;2.23;;;18.90;1.00;;;;;;5038401;28;20428;-77
2022/10/08 11:26:52;;;;;;;4.70;1.90;;;18.90;1.00;;;;;;5036431;28;20409;-76
2022/10/08 11:30:06;;;;;;;8.60;1.80;;;18.90;1.00;;;;;;5052039;28;20413;-75
2022/10/08 11:33:10;;;;;;;1.70;1.60;;;18.80;1.00;;;;;;5040628;28;20433;-77
2022/10/08 11:39:25;;;;;;;7.77;2.27;;;18.80;1.00;;;;;;5048673;28;20412;-77
2022/10/08 11:42:30;;;;;;;5.30;2.10;;;19.30;1.00;;;;;;4942307;29;20455;-76
2022/10/08 11:45:23;;;;;;;5.10;2.00;;;19.20;1.00;;;;;;4976263;28;20538;-76
2022/10/08 11:47:56;;;;;;;4.10;1.80;;;19.10;1.00;;;;;;4950577;29;20442;-78
2022/10/08 11:50:36;;;;;;;3.70;2.00;;;18.80;1.00;;;;;;4935922;28;20538;-77
2022/10/08 11:53:25;;;;;;;6.67;1.50;;;18.70;1.00;;;;;;4945817;29;20921;-77
2022/10/08 11:59:27;;;;;;;14.83;1.87;;;18.30;1.00;;;;;;4940470;29;20476;-78
2022/10/08 12:02:00;;;;;;;3.30;1.30;;;18.40;1.00;;;;;;4940473;29;20469;-77
2022/10/08 12:08:05;;;;;;;4.30;1.40;;;18.20;1.00;;;;;;4946754;28;20584;-77
2022/10/08 12:10:38;;;;;;;3.57;1.80;;;18.10;1.00;;;;;;4945579;29;20413;-78
2022/10/08 12:16:54;;;;;;;2.87;1.43;;;18.00;1.00;;;;;;4949186;29;20453;-77
2022/10/08 12:22:43;;;;;;;8.67;2.10;;;18.20;1.00;;;;;;5011398;28;20929;-74
2022/10/08 12:26:03;;;;;;;2.07;1.40;;;18.30;1.00;;;;;;5059530;28;20491;-75
2022/10/08 12:28:49;;;;;;;4.27;1.70;;;18.50;1.00;;;;;;5083917;28;20411;-75
2022/10/08 12:31:38;;;;;;;8.33;1.63;;;18.60;1.00;;;;;;5086181;28;20434;-74
2022/10/08 12:34:17;;;;;;;4.25;1.70;;;18.60;1.00;;;;;;5074363;28;20930;-77
2022/10/08 12:36:55;;;;;;;7.23;2.13;;;18.60;1.00;;;;;;5078491;28;20434;-75
2022/10/08 12:46:54;;;;;;;4.13;1.87;;;18.20;1.00;;;;;;5076991;28;20776;-76
2022/10/08 12:49:26;;;;;;;3.60;1.90;;;18.10;1.00;;;;;;5079922;28;20440;-78
2022/10/08 12:52:19;;;;;;;4.50;2.30;;;18.10;1.00;;;;;;5084121;28;20420;-78
2022/10/08 12:58:15;;;;;;;9.87;1.77;;;18.30;1.00;;;;;;5092662;28;20862;-80
2022/10/08 13:01:13;;;;;;;6.10;1.67;;;18.50;1.00;;;;;;5082154;28;20472;-78
2022/10/08 13:07:22;;;;;;;5.50;1.90;;;18.60;1.00;;;;;;5084614;28;21026;-75
2022/10/08 13:10:36;;;;;;;11.37;1.77;;;18.60;1.00;;;;;;5078741;28;20787;-75
2022/10/08 13:13:26;;;;;;;3.33;1.90;;;18.50;1.00;;;;;;5081509;28;20569;-76
2022/10/08 13:16:02;;;;;;;13.00;1.90;;;18.40;1.00;;;;;;5091604;28;20462;-76
2022/10/08 13:18:29;;;;;;;7.37;2.00;;;18.40;1.00;;;;;;5089343;28;20427;-75
2022/10/08 13:21:23;;;;;;;7.30;2.10;;;18.30;1.00;;;;;;5081654;28;20437;-75
2022/10/08 13:23:48;;;;;;;4.80;1.60;;;18.30;1.00;;;;;;5090563;28;20390;-76
2022/10/08 13:26:48;;;;;;;4.23;1.50;;;18.20;1.00;;;;;;5089906;28;20458;-76
2022/10/08 13:29:20;;;;;;;3.77;1.60;;;18.20;1.00;;;;;;5079223;28;20182;-76
2022/10/08 13:32:33;;;;;;;6.87;1.50;;;18.10;1.00;;;;;;5094059;28;20419;-76
2022/10/08 13:35:01;;;;;;;7.60;1.73;;;17.90;1.00;;;;;;5076961;28;20813;-76
2022/10/08 13:37:38;;;;;;;9.83;1.90;;;17.90;1.00;;;;;;5081095;28;20434;-76
2022/10/08 13:40:21;;;;;;;5.77;1.50;;;17.90;1.00;;;;;;5082786;28;20443;-76
2022/10/08 13:43:01;;;;;;;6.70;2.10;;;17.90;1.00;;;;;;5079499;28;20407;-76
2022/10/08 13:45:37;;;;;;;3.03;1.47;;;18.00;1.00;;;;;;5079357;28;20412;-76
2022/10/08 13:48:09;;;;;;;7.03;1.73;;;18.10;1.00;;;;;;5082321;28;20483;-75
2022/10/08 13:50:35;;;;;;;3.50;1.47;;;18.10;1.00;;;;;;5087196;28;20915;-74
2022/10/08 13:53:01;;;;;;;2.57;1.23;;;18.10;1.00;;;;;;5077770;28;20514;-74
2022/10/08 13:55:35;;;;;;;7.60;1.93;;;18.10;1.00;;;;;;5080919;28;20233;-74
2022/10/08 13:58:03;;;;;;;4.87;1.60;;;18.20;1.00;;;;;;5075757;28;20181;-74
2022/10/08 14:00:30;;;;;;;4.87;1.87;;;18.20;1.00;;;;;;5081035;28;20755;-74
2022/10/08 14:03:01;;;;;;;7.10;1.90;;;18.10;1.00;;;;;;5086756;28;20511;-74
2022/10/08 14:05:31;;;;;;;8.53;2.73;;;18.30;1.00;;;;;;5087634;28;20436;-74
2022/10/08 14:08:03;;;;;;;4.90;1.53;;;18.40;1.00;;;;;;5085740;28;21537;-74
2022/10/08 14:10:29;;;;;;;3.80;1.63;;;18.40;1.00;;;;;;5080109;28;20805;-74
2022/10/08 14:12:55;;;;;;;2.37;1.40;;;18.50;1.00;;;;;;5088992;28;20431;-74
2022/10/08 14:15:21;;;;;;;4.90;1.70;;;18.60;1.00;;;;;;5094009;28;20466;-74
2022/10/08 14:17:49;;;;;;;3.53;1.43;;;18.50;1.00;;;;;;5083355;28;20640;-74
2022/10/08 14:20:31;;;;;;;4.20;1.47;;;18.60;1.00;;;;;;5077630;28;20179;-75
2022/10/08 14:23:01;;;;;;;4.23;1.23;;;18.80;1.00;;;;;;5075674;28;20835;-76
2022/10/08 14:25:37;;;;;;;3.00;1.33;;;18.90;1.00;;;;;;5075987;28;20401;-76
2022/10/08 14:28:36;;;;;;;2.20;1.23;;;19.10;1.00;;;;;;5081243;28;20768;-76
2022/10/08 14:31:25;;;;;;;16.43;2.80;;;19.10;1.00;;;;;;5087528;28;20459;-76
2022/10/08 14:33:55;;;;;;;15.17;4.40;;;19.00;1.00;;;;;;5076803;28;20428;-75
2022/10/08 14:36:34;;;;;;;6.40;1.90;;;19.00;1.00;;;;;;5085172;28;20468;-77
2022/10/08 14:38:59;;;;;;;4.07;2.27;;;19.00;1.00;;;;;;5081171;28;20421;-76
2022/10/08 14:41:54;;;;;;;7.13;1.60;;;18.90;1.00;;;;;;5095479;28;20383;-77
2022/10/08 14:44:49;;;;;;;4.40;1.67;;;18.80;1.00;;;;;;5087197;28;20388;-77
2022/10/08 14:47:19;;;;;;;3.70;1.50;;;19.00;1.00;;;;;;5089679;28;20446;-77
2022/10/08 14:49:45;;;;;;;4.23;1.23;;;19.10;1.00;;;;;;5093496;28;20413;-74
2022/10/08 14:52:11;;;;;;;4.23;1.33;;;19.10;1.00;;;;;;5078999;28;20901;-75
2022/10/08 14:54:37;;;;;;;4.60;1.43;;;19.00;1.00;;;;;;5087242;28;20206;-74
2022/10/08 14:57:07;;;;;;;4.47;1.70;;;19.00;1.00;;;;;;5078635;28;20193;-74
2022/10/08 14:59:32;;;;;;;2.43;1.30;;;18.80;1.00;;;;;;5081461;28;20186;-74
2022/10/08 15:02:01;;;;;;;3.57;1.80;;;18.90;1.00;;;;;;5079420;28;20470;-74
2022/10/08 15:04:26;;;;;;;6.10;1.57;;;18.80;1.00;;;;;;5082581;28;20580;-77
2022/10/08 15:07:12;;;;;;;4.80;1.70;;;18.70;1.00;;;;;;5079368;28;20510;-78
2022/10/08 15:09:39;;;;;;;4.20;1.50;;;18.60;1.00;;;;;;5082178;28;20177;-75
2022/10/08 15:12:06;;;;;;;6.77;1.90;;;18.50;1.00;;;;;;5081945;28;20423;-77
2022/10/08 15:14:43;;;;;;;2.87;1.47;;;18.50;1.00;;;;;;5086463;28;20489;-76
2022/10/08 15:17:19;;;;;;;4.60;1.37;;;18.50;1.00;;;;;;5080289;28;20393;-77
2022/10/08 15:20:18;;;;;;;0.90;0.90;;;18.60;1.00;;;;;;5089932;28;20908;-77
2022/10/08 15:22:55;;;;;;;2.93;1.10;;;18.70;1.00;;;;;;5076529;28;20479;-77
2022/10/08 15:26:06;;;;;;;2.27;1.13;;;19.20;1.00;;;;;;5082084;28;20884;-78
2022/10/08 15:28:36;;;;;;;5.40;1.30;;;20.00;1.00;;;;;;5085953;28;20480;-76
2022/10/08 15:31:10;;;;;;;5.73;1.90;;;20.80;1.00;;;;;;5082917;28;20425;-74
2022/10/08 15:33:41;;;;;;;2.27;1.40;;;21.60;1.00;;;;;;5086554;28;20865;-75
2022/10/08 15:36:29;;;;;;;7.83;1.33;;;22.40;1.00;;;;;;5081007;28;20485;-75
2022/10/08 15:39:10;;;;;;;7.60;1.20;;;23.20;1.00;;;;;;5092722;28;20906;-77
2022/10/08 15:41:51;;;;;;;5.63;1.67;;;24.20;1.00;;;;;;5087797;28;20458;-77
2022/10/08 15:44:27;;;;;;;8.67;1.27;;;25.00;1.00;;;;;;5080042;28;20432;-76
2022/10/08 15:47:04;;;;;;;4.20;1.40;;;25.40;1.00;;;;;;5087322;28;20976;-77
2022/10/08 15:49:41;;;;;;;3.70;1.10;;;25.90;1.00;;;;;;5073645;28;20450;-75
2022/10/08 15:52:20;;;;;;;4.50;1.27;;;26.00;1.00;;;;;;5077875;28;20495;-76
2022/10/08 15:54:46;;;;;;;1.93;1.10;;;25.80;1.00;;;;;;5075166;28;20788;-76
2022/10/08 15:57:15;;;;;;;5.83;1.60;;;25.40;1.00;;;;;;5084043;28;20944;-75
2022/10/08 15:59:41;;;;;;;3.60;1.20;;;24.90;1.00;;;;;;5076246;28;20459;-75
2022/10/08 16:02:07;;;;;;;13.00;2.00;;;24.10;1.00;;;;;;5082564;28;20910;-75
2022/10/08 16:04:44;;;;;;;1.33;1.13;;;23.50;1.00;;;;;;5089474;28;20513;-75
2022/10/08 16:07:09;;;;;;;2.93;1.33;;;22.80;1.00;;;;;;5073520;28;20501;-75
2022/10/08 16:09:35;;;;;;;3.27;1.60;;;22.30;1.00;;;;;;5074529;28;20471;-74
2022/10/08 16:12:01;;;;;;;5.13;1.37;;;21.80;1.00;;;;;;5075931;28;20193;-74
2022/10/08 16:14:27;;;;;;;5.50;1.23;;;21.20;1.00;;;;;;5084600;28;20507;-74
2022/10/08 16:16:53;;;;;;;4.80;1.70;;;20.70;1.00;;;;;;5088183;28;20210;-75
2022/10/08 16:19:22;;;;;;;4.60;1.30;;;20.30;1.00;;;;;;5083100;28;20560;-74
2022/10/08 16:21:56;;;;;;;6.90;1.67;;;19.80;1.00;;;;;;5075485;28;20453;-75
2022/10/08 16:24:31;;;;;;;2.63;1.40;;;19.30;1.00;;;;;;5073394;28;20432;-75
2022/10/08 16:26:57;;;;;;;4.50;1.73;;;19.00;1.00;;;;;;5074004;28;20417;-75
2022/10/08 16:29:31;;;;;;;5.60;1.87;;;18.70;1.00;;;;;;5083197;28;20399;-75
2022/10/08 16:31:57;;;;;;;3.07;1.10;;;18.30;1.00;;;;;;5077748;28;20431;-75
2022/10/08 16:34:25;;;;;;;3.27;1.70;;;18.00;1.00;;;;;;5081697;28;20444;-75
2022/10/08 16:36:58;;;;;;;6.37;2.00;;;17.80;1.00;;;;;;5078143;28;20441;-75
2022/10/08 16:39:25;;;;;;;3.37;1.43;;;17.50;1.00;;;;;;5098448;28;20429;-74
2022/10/08 16:41:51;;;;;;;4.80;2.00;;;17.20;1.00;;;;;;5078608;28;20438;-74
2022/10/08 16:44:18;;;;;;;3.80;1.33;;;17.00;1.00;;;;;;5079439;28;20433;-74
2022/10/08 16:46:50;;;;;;;5.87;1.70;;;16.70;1.00;;;;;;5085640;28;20184;-74
2022/10/08 16:49:24;;;;;;;5.77;2.13;;;16.40;1.00;;;;;;5083406;28;20401;-74
2022/10/08 16:52:07;;;;;;;13.33;2.20;;;16.10;1.00;;;;;;5073323;28;20377;-76
2022/10/08 16:54:37;;;;;;;31.90;8.10;;;15.80;1.00;;;;;;5077996;28;20438;-76
2022/10/08 16:57:03;;;;;;;40.60;9.17;;;15.60;1.00;;;;;;5076150;28;20412;-76
2022/10/08 16:59:31;;;;;;;13.50;3.70;;;15.40;1.00;;;;;;5077845;28;20743;-75
2022/10/08 17:02:02;;;;;;;9.60;2.67;;;15.10;1.00;;;;;;5081893;28;20506;-75
2022/10/08 17:04:33;;;;;;;12.20;3.03;;;14.90;1.00;;;;;;5078517;28;20471;-75
2022/10/08 17:07:01;;;;;;;3.57;2.30;;;14.60;1.00;;;;;;5084924;28;20712;-75
2022/10/08 17:10:00;;;;;;;13.43;4.00;;;14.50;1.00;;;;;;5078400;28;20913;-75
2022/10/08 17:12:26;;;;;;;16.73;3.10;;;14.30;1.00;;;;;;5082015;28;20392;-75
2022/10/08 17:14:52;;;;;;;16.07;5.50;;;14.10;1.00;;;;;;5081505;28;20500;-75
2022/10/08 17:17:19;;;;;;;13.63;3.03;;;13.90;1.00;;;;;;5081016;28;20193;-76
2022/10/08 17:20:12;;;;;;;11.63;4.30;;;13.70;1.00;;;;;;5081369;28;20181;-75
2022/10/08 17:22:38;;;;;;;6.40;3.43;;;13.50;1.00;;;;;;5088179;28;20736;-74
2022/10/08 17:25:04;;;;;;;8.43;2.27;;;13.30;1.00;;;;;;5076913;28;20440;-74
2022/10/08 17:27:30;;;;;;;7.23;2.67;;;13.20;1.00;;;;;;5078902;28;20186;-74
2022/10/08 17:30:01;;;;;;;7.13;2.27;;;13.10;1.00;;;;;;5081590;28;20416;-73
2022/10/08 17:32:31;;;;;;;6.03;2.40;;;12.90;1.00;;;;;;5077631;28;20492;-74
2022/10/08 17:34:56;;;;;;;6.80;3.00;;;12.80;1.00;;;;;;5081434;28;20455;-74
2022/10/08 17:37:31;;;;;;;6.60;2.87;;;12.70;1.00;;;;;;5086712;28;20439;-75
2022/10/08 17:39:56;;;;;;;6.23;2.30;;;12.60;1.00;;;;;;5077796;28;20644;-75
2022/10/08 17:42:31;;;;;;;9.70;2.40;;;12.60;1.00;;;;;;5076095;28;20417;-75
2022/10/08 17:45:07;;;;;;;6.03;2.00;;;12.50;1.00;;;;;;5089661;28;20174;-75
2022/10/08 17:47:37;;;;;;;5.53;3.57;;;12.40;1.00;;;;;;5076256;28;20425;-76
2022/10/08 17:50:03;;;;;;;8.17;2.87;;;12.40;1.00;;;;;;5079111;28;20829;-75
2022/10/08 17:52:31;;;;;;;4.10;2.73;;;12.30;1.00;;;;;;5086037;28;20794;-75
2022/10/08 17:55:01;;;;;;;9.83;2.23;;;12.20;1.00;;;;;;5092388;28;20866;-75
2022/10/08 17:57:31;;;;;;;9.07;2.73;;;12.20;1.00;;;;;;5088916;28;20982;-74
2022/10/08 18:00:01;;;;;;;11.83;2.73;;;12.10;1.00;;;;;;5096644;28;20391;-75
2022/10/08 18:03:00;;;;;;;7.20;3.17;;;12.00;1.00;;;;;;5081268;28;20433;-87
2022/10/08 18:05:26;;;;;;;8.20;2.97;;;12.00;1.00;;;;;;5074680;28;20417;-82
2022/10/08 18:08:42;;;;;;;3.10;2.30;;;11.90;1.00;;;;;;5093393;28;20416;-80
2022/10/08 18:11:15;;;;;;;12.60;3.27;;;11.80;1.00;;;;;;5090350;28;20232;-78
2022/10/08 18:13:43;;;;;;;5.87;2.57;;;11.70;1.00;;;;;;5086726;28;20437;-78
2022/10/08 18:16:14;;;;;;;4.00;2.50;;;11.60;1.00;;;;;;5079708;28;20797;-79
2022/10/08 18:19:18;;;;;;;6.27;2.50;;;11.50;1.00;;;;;;5086371;28;20409;-79
2022/10/08 18:21:55;;;;;;;10.47;3.40;;;11.50;1.00;;;;;;5086633;28;20899;-81
2022/10/08 18:24:31;;;;;;;17.30;3.60;;;11.30;1.00;;;;;;5075866;28;20622;-81
2022/10/08 18:27:18;;;;;;;9.93;3.10;;;11.30;1.00;;;;;;5093566;28;20958;-80
2022/10/08 18:39:49;;;;;;;9.33;3.17;;;10.90;1.00;;;;;;5090788;28;20453;-80
2022/10/08 18:42:25;;;;;;;19.70;3.13;;;10.80;1.00;;;;;;5080500;28;20850;-81
2022/10/08 18:45:07;;;;;;;18.17;3.03;;;10.80;1.00;;;;;;5075784;28;20228;-79
2022/10/08 18:50:55;;;;;;;15.80;3.50;;;10.60;1.00;;;;;;5076107;28;20400;-80
2022/10/08 18:53:43;;;;;;;4.63;3.20;;;10.50;1.00;;;;;;5089653;28;20440;-81